createdAt,value
2022-10-13T00:01:11.045Z,11.99
2022-10-13T00:03:42.088Z,11.97
2022-10-13T00:06:10.192Z,11.92
2022-10-13T00:08:38.353Z,11.93
2022-10-13T00:11:14.324Z,11.93
2022-10-13T00:13:42.004Z,11.93
2022-10-13T00:16:09.818Z,11.90
2022-10-13T00:18:36.958Z,11.89
2022-10-13T00:21:11.171Z,11.90
2022-10-13T00:23:38.648Z,11.90
2022-10-13T00:26:07.027Z,11.89
2022-10-13T00:28:33.997Z,11.86
2022-10-13T00:31:00.883Z,11.85
2022-10-13T00:33:27.990Z,11.84
2022-10-13T00:35:54.896Z,11.85
2022-10-13T00:38:23.257Z,11.85
2022-10-13T00:40:53.061Z,11.86
2022-10-13T00:43:26.238Z,11.86
2022-10-13T00:45:54.059Z,11.85
2022-10-13T00:48:28.346Z,11.83
2022-10-13T00:50:56.507Z,11.79
2022-10-13T00:53:27.493Z,11.78
2022-10-13T00:55:55.698Z,11.77
2022-10-13T00:58:25.517Z,11.77
2022-10-13T01:00:53.579Z,11.75
2022-10-13T01:03:21.443Z,11.75
2022-10-13T01:05:50.418Z,11.74
2022-10-13T01:08:19.144Z,11.72
2022-10-13T01:11:22.871Z,11.68
2022-10-13T01:13:58.571Z,11.67
2022-10-13T01:16:54.530Z,11.66
2022-10-13T01:19:44.405Z,11.65
2022-10-13T01:22:26.587Z,11.62
2022-10-13T01:25:18.141Z,11.58
2022-10-13T01:28:22.290Z,11.60
2022-10-13T01:30:55.285Z,11.61
2022-10-13T01:33:30.198Z,11.59
2022-10-13T01:36:03.034Z,11.58
2022-10-13T01:38:59.238Z,11.60
2022-10-13T01:41:41.488Z,11.63
2022-10-13T01:44:23.788Z,11.67
2022-10-13T01:46:54.012Z,11.68
2022-10-13T01:49:27.272Z,11.70
2022-10-13T01:51:56.645Z,11.72
2022-10-13T01:54:23.471Z,11.73
2022-10-13T01:56:54.517Z,11.77
2022-10-13T01:59:22.983Z,11.76
2022-10-13T02:02:08.349Z,11.76
2022-10-13T02:04:50.205Z,11.78
2022-10-13T02:07:27.687Z,11.80
2022-10-13T02:10:05.891Z,11.78
2022-10-13T02:12:38.603Z,11.80
2022-10-13T02:15:09.821Z,11.84
2022-10-13T02:17:36.661Z,11.89
2022-10-13T02:20:06.603Z,11.93
2022-10-13T02:22:41.589Z,11.95
2022-10-13T02:25:09.093Z,11.97
2022-10-13T02:27:35.863Z,12.00
2022-10-13T02:30:02.974Z,12.02
2022-10-13T02:32:31.114Z,12.03
2022-10-13T02:34:57.909Z,12.07
2022-10-13T02:37:27.302Z,12.07
2022-10-13T02:39:54.167Z,12.07
2022-10-13T02:42:21.305Z,12.08
2022-10-13T02:44:48.356Z,12.10
2022-10-13T02:47:15.156Z,12.13
2022-10-13T02:49:41.944Z,12.17
2022-10-13T02:52:08.741Z,12.21
2022-10-13T02:54:37.752Z,12.23
2022-10-13T02:57:04.511Z,12.24
2022-10-13T02:59:31.295Z,12.27
2022-10-13T03:01:58.050Z,12.27
2022-10-13T03:04:26.212Z,12.26
2022-10-13T03:06:53.777Z,12.25
2022-10-13T03:09:20.572Z,12.27
2022-10-13T03:11:47.356Z,12.28
2022-10-13T03:14:14.184Z,12.29
2022-10-13T03:16:42.171Z,12.28
2022-10-13T03:19:10.282Z,12.31
2022-10-13T03:21:38.647Z,12.32
2022-10-13T03:24:05.944Z,12.31
2022-10-13T03:26:33.370Z,12.33
2022-10-13T03:29:00.140Z,12.33
2022-10-13T03:31:27.690Z,12.33
2022-10-13T03:34:01.868Z,12.32
2022-10-13T03:36:30.195Z,12.33
2022-10-13T03:38:56.986Z,12.32
2022-10-13T03:41:23.813Z,12.27
2022-10-13T03:43:50.773Z,12.24
2022-10-13T03:46:19.129Z,12.19
2022-10-13T03:48:47.399Z,12.17
2022-10-13T03:51:18.944Z,12.10
2022-10-13T03:53:46.718Z,12.06
2022-10-13T03:56:17.588Z,12.05
2022-10-13T03:58:55.547Z,12.04
2022-10-13T04:01:23.996Z,12.01
2022-10-13T04:03:54.024Z,11.97
2022-10-13T04:06:21.291Z,11.91
2022-10-13T04:08:49.540Z,11.92
2022-10-13T04:11:16.961Z,11.93
2022-10-13T04:13:44.927Z,11.93
2022-10-13T04:16:20.422Z,11.90
2022-10-13T04:18:52.954Z,11.88
2022-10-13T04:21:20.351Z,11.86
2022-10-13T04:23:47.292Z,11.83
2022-10-13T04:26:22.451Z,11.83
2022-10-13T04:28:51.271Z,11.79
2022-10-13T04:31:18.200Z,11.75
2022-10-13T04:33:45.893Z,11.70
2022-10-13T04:36:14.783Z,11.68
2022-10-13T04:38:42.862Z,11.68
2022-10-13T04:41:10.741Z,11.69
2022-10-13T04:43:37.703Z,11.68
2022-10-13T04:46:09.828Z,11.65
2022-10-13T04:48:36.631Z,11.64
2022-10-13T04:51:12.919Z,11.65
2022-10-13T04:53:40.774Z,11.63
2022-10-13T04:56:15.494Z,11.63
2022-10-13T04:58:44.261Z,11.62
2022-10-13T05:01:21.394Z,11.60
2022-10-13T05:03:54.523Z,11.61
2022-10-13T05:06:24.442Z,11.62
2022-10-13T05:08:56.203Z,11.64
2022-10-13T05:11:24.444Z,11.68
2022-10-13T05:13:51.272Z,11.68
2022-10-13T05:16:19.836Z,11.70
2022-10-13T05:18:47.595Z,11.70
2022-10-13T05:21:20.051Z,11.68
2022-10-13T05:23:46.868Z,11.67
2022-10-13T05:26:16.616Z,11.64
2022-10-13T05:28:44.492Z,11.64
2022-10-13T05:31:19.696Z,11.64
2022-10-13T05:33:47.413Z,11.62
2022-10-13T05:36:30.854Z,11.61
2022-10-13T05:38:59.773Z,11.60
2022-10-13T05:41:28.012Z,11.59
2022-10-13T05:43:59.091Z,11.56
2022-10-13T05:46:26.470Z,11.55
2022-10-13T05:48:53.543Z,11.55
2022-10-13T05:51:27.048Z,11.57
2022-10-13T05:54:10.586Z,11.56
2022-10-13T05:56:42.667Z,11.56
2022-10-13T05:59:12.333Z,11.57
2022-10-13T06:01:42.391Z,11.58
2022-10-13T06:04:18.693Z,11.59
2022-10-13T06:06:46.171Z,11.61
2022-10-13T06:09:13.158Z,11.65
2022-10-13T06:11:40.312Z,11.66
2022-10-13T06:14:07.053Z,11.68
2022-10-13T06:16:36.486Z,11.69
2022-10-13T06:19:04.631Z,11.71
2022-10-13T06:21:31.667Z,11.74
2022-10-13T06:23:58.491Z,11.75
2022-10-13T06:26:25.272Z,11.76
2022-10-13T06:28:56.934Z,11.76
2022-10-13T06:31:26.048Z,11.78
2022-10-13T06:33:52.796Z,11.79
2022-10-13T06:36:19.581Z,11.78
2022-10-13T06:38:47.075Z,11.78
2022-10-13T06:41:14.451Z,11.81
2022-10-13T06:43:41.540Z,11.87
2022-10-13T06:46:11.941Z,11.92
2022-10-13T06:48:38.918Z,11.93
2022-10-13T06:51:09.264Z,11.89
2022-10-13T06:53:36.319Z,11.85
2022-10-13T06:56:06.143Z,11.79
2022-10-13T06:58:34.044Z,11.81
2022-10-13T07:01:00.892Z,11.82
2022-10-13T07:03:27.860Z,11.86
2022-10-13T07:05:54.663Z,11.91
2022-10-13T07:08:21.677Z,11.97
2022-10-13T07:10:48.934Z,12.03
2022-10-13T07:13:15.770Z,12.12
2022-10-13T07:15:42.619Z,12.21
2022-10-13T07:18:09.393Z,12.32
2022-10-13T07:20:36.190Z,12.41
2022-10-13T07:23:04.049Z,12.50
2022-10-13T07:25:30.845Z,12.59
2022-10-13T07:27:59.267Z,12.69
2022-10-13T07:30:27.070Z,12.76
2022-10-13T07:32:53.930Z,12.84
2022-10-13T07:35:24.790Z,12.90
2022-10-13T07:37:54.997Z,12.98
2022-10-13T07:40:21.848Z,13.03
2022-10-13T07:42:48.739Z,13.12
2022-10-13T07:45:15.674Z,13.16
2022-10-13T07:47:42.428Z,13.23
2022-10-13T07:50:10.354Z,13.30
2022-10-13T07:52:37.205Z,13.37
2022-10-13T07:55:04.563Z,13.43
2022-10-13T07:57:31.308Z,13.50
2022-10-13T07:59:58.158Z,13.58
2022-10-13T08:02:25.090Z,13.64
2022-10-13T08:04:51.983Z,13.70
2022-10-13T08:07:19.092Z,13.80
2022-10-13T08:09:46.654Z,13.91
2022-10-13T08:12:13.399Z,14.00
2022-10-13T08:14:40.235Z,14.14
2022-10-13T08:17:08.011Z,14.26
2022-10-13T08:19:34.935Z,14.34
2022-10-13T08:22:01.734Z,14.41
2022-10-13T08:24:29.600Z,14.47
2022-10-13T08:26:56.563Z,14.53
2022-10-13T08:29:24.362Z,14.56
2022-10-13T08:31:54.907Z,14.61
2022-10-13T08:34:23.763Z,14.58
2022-10-13T08:36:54.368Z,14.57
2022-10-13T08:39:23.658Z,14.59
2022-10-13T08:41:50.826Z,14.67
2022-10-13T08:47:25.242Z,14.81
2022-10-13T08:49:55.368Z,14.88
2022-10-13T08:52:30.057Z,14.91
2022-10-13T08:54:57.273Z,14.97
2022-10-13T08:57:24.535Z,15.07
2022-10-13T08:59:52.575Z,15.20
2022-10-13T09:02:27.274Z,15.27
2022-10-13T09:04:54.418Z,15.32
2022-10-13T09:07:28.472Z,15.42
2022-10-13T09:09:55.758Z,15.51
2022-10-13T09:12:25.324Z,15.57
2022-10-13T09:15:05.368Z,15.55
2022-10-13T09:17:33.916Z,15.50
2022-10-13T09:20:23.192Z,15.44
2022-10-13T09:23:20.309Z,15.48
2022-10-13T09:25:50.076Z,15.49
2022-10-13T09:28:25.310Z,15.54
2022-10-13T09:31:09.171Z,15.53
2022-10-13T09:33:38.810Z,15.53
2022-10-13T09:36:11.703Z,15.57
2022-10-13T09:38:40.670Z,15.56
2022-10-13T09:41:15.899Z,15.57
2022-10-13T09:43:48.525Z,15.60
2022-10-13T09:46:49.112Z,15.64
2022-10-13T09:49:38.917Z,15.73
2022-10-13T09:52:18.700Z,15.85
2022-10-13T09:55:00.907Z,15.92
2022-10-13T09:57:30.754Z,15.95
2022-10-13T10:00:16.667Z,15.98
2022-10-13T10:03:12.458Z,16.04
2022-10-13T10:05:45.068Z,16.04
2022-10-13T10:08:33.639Z,16.07
2022-10-13T10:11:17.769Z,16.12
2022-10-13T10:13:44.599Z,16.11
2022-10-13T10:16:18.151Z,15.95
2022-10-13T10:19:08.791Z,15.94
2022-10-13T10:21:49.681Z,15.93
2022-10-13T10:24:22.761Z,15.92
2022-10-13T10:26:59.571Z,15.94
2022-10-13T10:29:38.267Z,15.96
2022-10-13T10:32:19.834Z,16.02
2022-10-13T10:35:14.246Z,16.06
2022-10-13T10:38:07.190Z,16.08
2022-10-13T10:40:54.986Z,16.10
2022-10-13T10:43:43.748Z,16.14
2022-10-13T10:46:20.407Z,16.16
2022-10-13T10:48:50.357Z,16.17
2022-10-13T10:51:18.857Z,16.22
2022-10-13T10:54:19.408Z,16.32
2022-10-13T10:56:54.461Z,16.40
2022-10-13T10:59:29.359Z,16.52
2022-10-13T11:02:30.392Z,16.64
2022-10-13T11:05:02.115Z,16.71
2022-10-13T11:07:32.156Z,16.72
2022-10-13T11:10:17.916Z,16.62
2022-10-13T11:12:50.827Z,16.63
2022-10-13T11:15:23.481Z,16.58
2022-10-13T11:17:50.570Z,16.58
2022-10-13T11:20:18.037Z,16.57
2022-10-13T11:22:59.701Z,16.51
2022-10-13T11:25:35.813Z,16.44
2022-10-13T11:28:23.634Z,16.35
2022-10-13T11:31:13.420Z,16.25
2022-10-13T11:33:40.099Z,16.26
2022-10-13T11:36:29.712Z,16.33
2022-10-13T11:39:28.735Z,16.33
2022-10-13T11:42:20.125Z,16.27
2022-10-13T11:44:56.238Z,16.21
2022-10-13T11:47:56.914Z,16.16
2022-10-13T11:50:49.043Z,16.16
2022-10-13T11:53:28.162Z,16.03
2022-10-13T11:56:01.591Z,15.96
2022-10-13T11:58:30.467Z,15.84
2022-10-13T12:01:08.700Z,15.73
2022-10-13T12:03:42.085Z,15.69
2022-10-13T12:06:33.372Z,15.67
2022-10-13T12:09:15.953Z,15.67
2022-10-13T12:11:44.404Z,15.65
2022-10-13T12:14:28.795Z,15.61
2022-10-13T12:16:58.565Z,15.57
2022-10-13T12:19:28.759Z,15.58
2022-10-13T12:21:58.829Z,15.62
2022-10-13T12:24:31.079Z,15.64
2022-10-13T12:26:58.879Z,15.71
2022-10-13T12:29:30.236Z,15.76
2022-10-13T12:32:00.608Z,15.83
2022-10-13T12:34:30.014Z,15.87
2022-10-13T12:37:02.643Z,15.94
2022-10-13T12:39:31.984Z,15.90
2022-10-13T12:42:01.361Z,15.88
2022-10-13T12:44:30.837Z,15.86
2022-10-13T12:47:00.260Z,15.85
2022-10-13T12:49:29.734Z,15.90
2022-10-13T12:52:14.907Z,16.09
2022-10-13T12:54:56.146Z,16.35
2022-10-13T12:57:38.972Z,16.66
2022-10-13T13:00:19.931Z,17.02
2022-10-13T13:03:07.550Z,17.28
2022-10-13T13:05:51.579Z,17.41
2022-10-13T13:08:27.191Z,17.35
2022-10-13T13:10:55.950Z,17.38
2022-10-13T13:13:24.039Z,17.43
2022-10-13T13:15:51.286Z,17.53
2022-10-13T13:18:27.349Z,17.40
2022-10-13T13:20:54.823Z,17.32
2022-10-13T13:23:23.424Z,17.24
2022-10-13T13:26:11.256Z,17.02
2022-10-13T13:28:38.810Z,16.87
2022-10-13T13:31:05.705Z,16.72
2022-10-13T13:33:32.718Z,16.61
2022-10-13T13:35:59.903Z,16.48
2022-10-13T13:38:26.747Z,16.33
2022-10-13T13:40:53.580Z,16.28
2022-10-13T13:43:20.521Z,16.25
2022-10-13T13:45:47.956Z,16.19
2022-10-13T13:48:18.475Z,16.12
2022-10-13T13:50:45.225Z,16.05
2022-10-13T13:53:11.960Z,16.01
2022-10-13T13:55:39.211Z,15.99
2022-10-13T13:58:06.716Z,15.96
2022-10-13T14:00:33.763Z,15.92
2022-10-13T14:03:00.691Z,15.89
2022-10-13T14:05:27.517Z,15.91
2022-10-13T14:07:56.059Z,15.92
2022-10-13T14:10:22.895Z,15.90
2022-10-13T14:12:49.998Z,15.86
2022-10-13T14:15:16.860Z,15.83
2022-10-13T14:17:43.643Z,15.83
2022-10-13T14:20:10.902Z,15.80
2022-10-13T14:22:38.801Z,15.77
2022-10-13T14:25:07.316Z,15.78
2022-10-13T14:27:35.305Z,15.76
2022-10-13T14:30:03.548Z,15.80
2022-10-13T14:32:30.359Z,15.83
2022-10-13T14:34:57.122Z,15.82
2022-10-13T14:37:26.718Z,15.81
2022-10-13T14:39:55.840Z,15.75
2022-10-13T14:42:22.693Z,15.72
2022-10-13T14:44:50.075Z,15.71
2022-10-13T14:47:16.869Z,15.71
2022-10-13T14:49:43.694Z,15.71
2022-10-13T14:52:10.602Z,15.72
2022-10-13T14:54:40.086Z,15.72
2022-10-13T14:57:15.965Z,15.65
2022-10-13T14:59:43.736Z,15.60
2022-10-13T15:02:14.672Z,15.57
2022-10-13T15:04:51.252Z,15.56
2022-10-13T15:07:18.963Z,15.56
2022-10-13T15:09:53.280Z,15.59
2022-10-13T15:12:28.218Z,15.57
2022-10-13T15:14:55.111Z,15.54
2022-10-13T15:17:21.996Z,15.54
2022-10-13T15:19:48.737Z,15.47
2022-10-13T15:22:15.694Z,15.43
2022-10-13T15:24:43.517Z,15.42
2022-10-13T15:27:10.286Z,15.45
2022-10-13T15:29:37.145Z,15.53
2022-10-13T15:32:09.914Z,15.51
2022-10-13T15:34:39.640Z,15.46
2022-10-13T15:37:07.166Z,15.46
2022-10-13T15:39:33.980Z,15.44
2022-10-13T15:42:00.816Z,15.40
2022-10-13T15:44:27.926Z,15.39
2022-10-13T15:47:07.962Z,15.39
2022-10-13T15:49:44.050Z,15.32
2022-10-13T15:52:10.930Z,15.28
2022-10-13T15:54:37.725Z,15.26
2022-10-13T15:57:04.525Z,15.21
2022-10-13T15:59:31.474Z,15.20
2022-10-13T16:01:58.257Z,15.17
2022-10-13T16:04:25.197Z,15.15
2022-10-13T16:06:52.200Z,15.09
2022-10-13T16:09:19.894Z,15.06
2022-10-13T16:11:48.281Z,15.02
2022-10-13T16:14:18.537Z,14.99
2022-10-13T16:16:46.285Z,14.94
2022-10-13T16:19:14.911Z,14.91
2022-10-13T16:21:43.202Z,14.86
2022-10-13T16:24:10.542Z,14.81
2022-10-13T16:26:38.689Z,14.75
2022-10-13T16:29:07.766Z,14.69
2022-10-13T16:31:35.211Z,14.62
2022-10-13T16:34:03.913Z,14.57
2022-10-13T16:36:31.575Z,14.55
2022-10-13T16:39:00.421Z,14.49
2022-10-13T16:41:28.761Z,14.45
2022-10-13T16:43:55.745Z,14.45
2022-10-13T16:46:24.202Z,14.47
2022-10-13T16:48:52.652Z,14.46
2022-10-13T16:51:25.301Z,14.46
2022-10-13T16:53:53.136Z,14.43
2022-10-13T16:56:22.392Z,14.42
2022-10-13T16:59:01.090Z,14.45
2022-10-13T17:01:29.334Z,14.48
2022-10-13T17:03:56.962Z,14.49
2022-10-13T17:06:27.901Z,14.50
2022-10-13T17:08:56.225Z,14.51
2022-10-13T17:11:29.226Z,14.55
2022-10-13T17:13:57.826Z,14.57
2022-10-13T17:16:25.221Z,14.60
2022-10-13T17:18:51.983Z,14.57
2022-10-13T17:21:19.178Z,14.54
2022-10-13T17:23:48.549Z,14.55
2022-10-13T17:26:17.025Z,14.58
2022-10-13T17:28:44.551Z,14.60
2022-10-13T17:31:12.771Z,14.60
2022-10-13T17:33:44.997Z,14.61
2022-10-13T17:36:23.354Z,14.61
2022-10-13T17:38:51.227Z,14.60
2022-10-13T17:41:19.298Z,14.61
2022-10-13T17:43:51.716Z,14.57
2022-10-13T17:46:43.100Z,14.59
2022-10-13T17:49:11.724Z,14.56
2022-10-13T17:51:39.919Z,14.53
2022-10-13T17:54:10.276Z,14.53
2022-10-13T17:56:41.423Z,14.54
2022-10-13T17:59:09.919Z,14.53
2022-10-13T18:01:37.333Z,14.52
2022-10-13T18:04:08.521Z,14.49
2022-10-13T18:06:44.040Z,14.49
2022-10-13T18:09:20.268Z,14.46
2022-10-13T18:11:50.786Z,14.47
2022-10-13T18:14:24.705Z,14.50
2022-10-13T18:16:52.432Z,14.49
2022-10-13T18:19:20.675Z,14.47
2022-10-13T18:21:47.677Z,14.48
2022-10-13T18:24:14.774Z,14.43
2022-10-13T18:26:41.556Z,14.40
2022-10-13T18:29:09.232Z,14.37
2022-10-13T18:31:39.755Z,14.35
2022-10-13T18:34:08.711Z,14.34
2022-10-13T18:36:41.892Z,14.28
2022-10-13T18:39:14.654Z,14.23
2022-10-13T18:41:45.448Z,14.18
2022-10-13T18:44:12.251Z,14.20
2022-10-13T18:46:39.801Z,14.17
2022-10-13T18:49:09.083Z,14.16
2022-10-13T18:51:39.528Z,14.15
2022-10-13T18:54:06.656Z,14.13
2022-10-13T18:56:34.645Z,14.11
2022-10-13T18:59:02.202Z,14.10
2022-10-13T19:01:31.712Z,14.03
2022-10-13T19:03:58.647Z,13.98
2022-10-13T19:06:28.009Z,13.94
2022-10-13T19:09:02.334Z,13.88
2022-10-13T19:11:30.196Z,13.83
2022-10-13T19:13:58.224Z,13.84
2022-10-13T19:16:26.392Z,13.85
2022-10-13T19:18:53.418Z,13.88
2022-10-13T19:21:21.520Z,13.89
2022-10-13T19:23:49.289Z,13.92
2022-10-13T19:26:25.110Z,13.94
2022-10-13T19:28:57.449Z,13.94
2022-10-13T19:31:27.110Z,13.94
2022-10-13T19:33:55.579Z,13.94
2022-10-13T19:36:30.389Z,13.96
2022-10-13T19:39:01.289Z,13.95
2022-10-13T19:41:29.693Z,13.96
2022-10-13T19:43:56.569Z,13.93
2022-10-13T19:46:24.374Z,13.90
2022-10-13T19:48:51.572Z,13.92
2022-10-13T19:51:18.444Z,13.92
2022-10-13T19:53:45.580Z,13.93
2022-10-13T19:56:25.682Z,13.95
2022-10-13T19:58:53.424Z,13.96
2022-10-13T20:01:22.545Z,13.97
2022-10-13T20:03:49.989Z,13.95
2022-10-13T20:06:17.455Z,13.94
2022-10-13T20:08:45.554Z,13.94
2022-10-13T20:11:20.691Z,13.98
2022-10-13T20:13:50.071Z,13.99
2022-10-13T20:16:19.580Z,14.00
2022-10-13T20:18:54.863Z,13.98
2022-10-13T20:21:22.233Z,14.00
2022-10-13T20:23:49.641Z,14.02
2022-10-13T20:26:17.136Z,14.02
2022-10-13T20:28:46.471Z,13.99
2022-10-13T20:31:14.821Z,13.95
2022-10-13T20:33:42.394Z,13.89
2022-10-13T20:36:13.705Z,13.90
2022-10-13T20:38:41.391Z,13.90
2022-10-13T20:41:15.589Z,13.89
2022-10-13T20:43:42.395Z,13.91
2022-10-13T20:46:10.276Z,13.88
2022-10-13T20:49:05.219Z,13.90
2022-10-13T20:51:26.181Z,13.89
2022-10-13T20:53:53.155Z,13.88
2022-10-13T20:56:23.133Z,13.84
2022-10-13T20:58:50.258Z,13.81
2022-10-13T21:01:19.013Z,13.79
2022-10-13T21:03:46.582Z,13.75
2022-10-13T21:06:14.784Z,13.71
2022-10-13T21:08:45.781Z,13.65
2022-10-13T21:11:13.446Z,13.58
2022-10-13T21:13:41.323Z,13.58
2022-10-13T21:16:14.292Z,13.60
2022-10-13T21:18:44.230Z,13.61
2022-10-13T21:21:12.101Z,13.61
2022-10-13T21:23:40.319Z,13.62
2022-10-13T21:26:08.869Z,13.60
2022-10-13T21:28:39.471Z,13.55
2022-10-13T21:31:09.212Z,13.54
2022-10-13T21:33:38.060Z,13.51
2022-10-13T21:36:10.218Z,13.47
2022-10-13T21:38:37.026Z,13.48
2022-10-13T21:41:04.792Z,13.46
2022-10-13T21:43:31.762Z,13.48
2022-10-13T21:46:11.538Z,13.50
2022-10-13T21:48:43.101Z,13.49
2022-10-13T21:51:24.535Z,13.50
2022-10-13T21:53:56.431Z,13.44
2022-10-13T21:56:24.247Z,13.47
2022-10-13T21:58:51.113Z,13.47
2022-10-13T22:01:19.270Z,13.48
2022-10-13T22:03:49.807Z,13.50
2022-10-13T22:06:19.926Z,13.47
2022-10-13T22:08:48.976Z,13.45
2022-10-13T22:11:21.865Z,13.47
2022-10-13T22:13:48.762Z,13.50
2022-10-13T22:16:19.161Z,13.53
2022-10-13T22:18:46.929Z,13.53
2022-10-13T22:21:17.130Z,13.53
2022-10-13T22:23:45.021Z,13.54
2022-10-13T22:26:13.801Z,13.53
2022-10-13T22:28:41.069Z,13.52
2022-10-13T22:31:10.109Z,13.52
2022-10-13T22:33:37.933Z,13.47
2022-10-13T22:36:14.569Z,13.48
2022-10-13T22:38:41.427Z,13.48
2022-10-13T22:41:08.772Z,13.49
2022-10-13T22:43:36.750Z,13.46
2022-10-13T22:46:13.644Z,13.47
2022-10-13T22:48:41.739Z,13.46
2022-10-13T22:51:16.135Z,13.43
2022-10-13T22:53:43.378Z,13.41
2022-10-13T22:56:13.276Z,13.41
2022-10-13T22:58:40.470Z,13.37
2022-10-13T23:01:09.409Z,13.34
2022-10-13T23:03:36.715Z,13.29
2022-10-13T23:06:04.710Z,13.25
2022-10-13T23:08:31.469Z,13.21
2022-10-13T23:10:58.588Z,13.16
2022-10-13T23:13:25.814Z,13.16
2022-10-13T23:15:53.852Z,13.13
2022-10-13T23:18:25.812Z,13.12
2022-10-13T23:20:56.705Z,13.04
2022-10-13T23:23:26.187Z,13.01
2022-10-13T23:25:52.932Z,13.01
2022-10-13T23:28:19.734Z,13.00
2022-10-13T23:30:46.457Z,12.99
2022-10-13T23:33:13.217Z,12.98
2022-10-13T23:35:42.141Z,12.96
2022-10-13T23:38:10.209Z,12.91
2022-10-13T23:40:37.723Z,12.89
2022-10-13T23:43:06.178Z,12.86
2022-10-13T23:45:34.060Z,12.83
2022-10-13T23:48:00.856Z,12.85
2022-10-13T23:50:28.417Z,12.86
2022-10-13T23:52:56.153Z,12.87
2022-10-13T23:55:22.907Z,12.86
2022-10-13T23:57:49.677Z,12.82
